createdAt,value
2024-02-14T00:00:27.717Z,101651.85
2024-02-14T00:02:54.548Z,101654.11
2024-02-14T00:05:21.980Z,101657.31
2024-02-14T00:07:48.825Z,101656.90
2024-02-14T00:10:15.688Z,101658.30
2024-02-14T00:12:42.620Z,101659.90
2024-02-14T00:15:10.117Z,101661.71
2024-02-14T00:17:37.126Z,101666.44
2024-02-14T00:20:05.730Z,101668.29
2024-02-14T00:22:32.930Z,101666.90
2024-02-14T00:24:59.858Z,101670.26
2024-02-14T00:27:27.965Z,101666.85
2024-02-14T00:29:55.961Z,101670.69
2024-02-14T00:32:23.689Z,101670.05
2024-02-14T00:34:51.742Z,101666.98
2024-02-14T00:37:21.217Z,101668.50
2024-02-14T00:39:50.160Z,101670.45
2024-02-14T00:42:17.690Z,101672.86
2024-02-14T00:44:44.476Z,101674.95
2024-02-14T00:47:11.488Z,101674.41
2024-02-14T00:49:40.452Z,101672.05
2024-02-14T00:52:07.907Z,101671.30
2024-02-14T00:54:34.663Z,101674.35
2024-02-14T00:57:01.585Z,101673.68
2024-02-14T00:59:28.824Z,101676.80
2024-02-14T01:01:55.600Z,101679.92
2024-02-14T01:04:22.390Z,101680.39
2024-02-14T01:06:50.955Z,101684.70
2024-02-14T01:09:18.609Z,101684.19
2024-02-14T01:11:46.222Z,101686.64
2024-02-14T01:14:15.367Z,101685.62
2024-02-14T01:16:46.783Z,101684.61
2024-02-14T01:19:15.437Z,101684.65
2024-02-14T01:21:42.888Z,101681.12
2024-02-14T01:24:10.409Z,101680.94
2024-02-14T01:26:37.404Z,101686.41
2024-02-14T01:29:06.993Z,101684.74
2024-02-14T01:31:37.157Z,101684.61
2024-02-14T01:34:04.257Z,101681.58
2024-02-14T01:36:31.661Z,101679.57
2024-02-14T01:39:17.225Z,101681.43
2024-02-14T01:41:49.802Z,101681.70
2024-02-14T01:44:17.941Z,101682.96
2024-02-14T01:46:45.877Z,101686.23
2024-02-14T01:49:13.622Z,101688.86
2024-02-14T01:51:45.137Z,101686.34
2024-02-14T01:54:14.031Z,101683.98
2024-02-14T01:56:42.178Z,101682.00
2024-02-14T01:59:10.508Z,101684.11
2024-02-14T02:01:37.315Z,101682.80
2024-02-14T02:04:05.665Z,101681.65
2024-02-14T02:06:33.403Z,101680.98
2024-02-14T02:09:01.748Z,101679.68
2024-02-14T02:11:28.834Z,101680.59
2024-02-14T02:13:56.478Z,101681.14
2024-02-14T02:16:23.313Z,101679.50
2024-02-14T02:18:51.099Z,101679.33
2024-02-14T02:21:21.142Z,101678.65
2024-02-14T02:23:48.425Z,101679.48
2024-02-14T02:26:15.954Z,101678.04
2024-02-14T02:28:44.136Z,101678.61
2024-02-14T02:31:11.503Z,101677.56
2024-02-14T02:33:38.901Z,101677.25
2024-02-14T02:36:07.945Z,101673.19
2024-02-14T02:38:35.212Z,101672.34
2024-02-14T02:41:02.316Z,101674.21
2024-02-14T02:43:29.659Z,101676.02
2024-02-14T02:45:58.364Z,101678.29
2024-02-14T02:48:25.299Z,101678.84
2024-02-14T02:50:53.112Z,101680.96
2024-02-14T02:53:20.520Z,101681.17
2024-02-14T02:55:47.270Z,101684.90
2024-02-14T02:58:15.024Z,101686.54
2024-02-14T03:00:41.934Z,101683.48
2024-02-14T03:03:10.085Z,101687.89
2024-02-14T03:05:37.351Z,101690.29
2024-02-14T03:08:04.396Z,101691.88
2024-02-14T03:10:31.878Z,101692.65
2024-02-14T03:12:58.675Z,101693.36
2024-02-14T03:15:27.211Z,101696.73
2024-02-14T03:17:54.155Z,101696.97
2024-02-14T03:20:21.532Z,101699.50
2024-02-14T03:22:49.430Z,101698.60
2024-02-14T03:25:21.227Z,101703.95
2024-02-14T03:27:50.929Z,101708.30
2024-02-14T03:30:19.162Z,101713.08
2024-02-14T03:32:48.043Z,101709.91
2024-02-14T03:35:15.131Z,101711.49
2024-02-14T03:37:43.878Z,101713.73
2024-02-14T03:40:11.544Z,101715.05
2024-02-14T03:42:41.316Z,101719.08
2024-02-14T03:45:09.571Z,101722.98
2024-02-14T03:47:41.002Z,101722.99
2024-02-14T03:50:09.568Z,101728.72
2024-02-14T03:52:36.678Z,101735.69
2024-02-14T03:55:04.361Z,101741.73
2024-02-14T03:57:31.249Z,101742.34
2024-02-14T04:00:05.018Z,101744.44
2024-02-14T04:02:40.641Z,101751.31
2024-02-14T04:05:09.130Z,101757.80
2024-02-14T04:07:36.205Z,101762.06
2024-02-14T04:10:03.050Z,101763.20
2024-02-14T04:12:29.888Z,101766.70
2024-02-14T04:14:56.711Z,101768.66
2024-02-14T04:17:24.007Z,101768.60
2024-02-14T04:19:51.293Z,101765.92
2024-02-14T04:22:18.120Z,101766.80
2024-02-14T04:24:44.951Z,101765.70
2024-02-14T04:27:11.692Z,101768.32
2024-02-14T04:29:38.446Z,101772.20
2024-02-14T04:32:05.441Z,101769.17
2024-02-14T04:34:32.970Z,101772.77
2024-02-14T04:36:59.882Z,101771.55
2024-02-14T04:39:26.623Z,101773.11
2024-02-14T04:42:01.047Z,101770.94
2024-02-14T04:44:30.535Z,101775.33
2024-02-14T04:46:59.485Z,101789.89
2024-02-14T04:49:27.392Z,101790.59
2024-02-14T04:51:54.365Z,101793.83
2024-02-14T04:54:21.158Z,101796.14
2024-02-14T04:56:51.480Z,101796.68
2024-02-14T04:59:20.619Z,101793.13
2024-02-14T05:01:47.526Z,101794.45
2024-02-14T05:04:14.382Z,101792.55
2024-02-14T05:06:41.536Z,101786.81
2024-02-14T05:09:08.434Z,101787.59
2024-02-14T05:11:35.649Z,101789.80
2024-02-14T05:14:03.362Z,101789.16
2024-02-14T05:16:30.466Z,101789.63
2024-02-14T05:18:57.337Z,101782.67
2024-02-14T05:21:24.255Z,101778.98
2024-02-14T05:23:51.834Z,101781.57
2024-02-14T05:26:18.736Z,101786.30
2024-02-14T05:28:45.664Z,101782.73
2024-02-14T05:31:12.336Z,101782.77
2024-02-14T05:33:39.129Z,101785.51
2024-02-14T05:36:07.317Z,101786.69
2024-02-14T05:38:35.517Z,101787.91
2024-02-14T05:41:02.956Z,101789.02
2024-02-14T05:43:29.880Z,101789.42
2024-02-14T05:45:56.711Z,101786.44
2024-02-14T05:48:23.815Z,101791.16
2024-02-14T05:50:50.943Z,101797.19
2024-02-14T05:53:17.795Z,101801.31
2024-02-14T05:55:44.823Z,101805.13
2024-02-14T05:58:11.951Z,101808.77
2024-02-14T06:00:39.849Z,101811.35
2024-02-14T06:03:08.189Z,101814.02
2024-02-14T06:05:35.987Z,101809.02
2024-02-14T06:08:04.578Z,101815.65
2024-02-14T06:10:31.542Z,101817.63
2024-02-14T06:12:58.370Z,101819.35
2024-02-14T06:15:25.217Z,101817.20
2024-02-14T06:17:52.520Z,101822.49
2024-02-14T06:20:19.801Z,101820.66
2024-02-14T06:22:53.631Z,101822.31
2024-02-14T06:25:28.313Z,101818.27
2024-02-14T06:27:57.971Z,101817.13
2024-02-14T06:30:25.762Z,101822.13
2024-02-14T06:32:54.094Z,101825.83
2024-02-14T06:35:22.131Z,101832.13
2024-02-14T06:37:55.937Z,101835.98
2024-02-14T06:40:31.039Z,101837.95
2024-02-14T06:42:59.877Z,101844.99
2024-02-14T06:45:28.959Z,101848.04
2024-02-14T06:47:56.456Z,101847.82
2024-02-14T06:50:23.527Z,101850.84
2024-02-14T06:52:50.271Z,101853.87
2024-02-14T06:55:17.046Z,101856.59
2024-02-14T06:57:43.785Z,101862.26
2024-02-14T07:00:11.838Z,101867.11
2024-02-14T07:02:38.941Z,101864.05
2024-02-14T07:05:08.552Z,101863.23
2024-02-14T07:07:35.328Z,101869.68
2024-02-14T07:10:02.638Z,101872.77
2024-02-14T07:12:31.717Z,101877.91
2024-02-14T07:14:58.695Z,101885.39
2024-02-14T07:17:25.684Z,101882.91
2024-02-14T07:19:52.758Z,101883.60
2024-02-14T07:22:22.472Z,101884.70
2024-02-14T07:24:49.457Z,101888.58
2024-02-14T07:27:17.961Z,101889.90
2024-02-14T07:29:46.233Z,101894.39
2024-02-14T07:32:13.093Z,101895.66
2024-02-14T07:34:43.536Z,101894.80
2024-02-14T07:37:10.379Z,101900.01
2024-02-14T07:39:37.334Z,101904.81
2024-02-14T07:42:04.679Z,101906.73
2024-02-14T07:44:32.591Z,101911.58
2024-02-14T07:47:02.532Z,101902.73
2024-02-14T07:49:32.093Z,101904.48
2024-02-14T07:51:59.239Z,101906.91
2024-02-14T07:54:26.206Z,101907.80
2024-02-14T07:56:53.312Z,101910.70
2024-02-14T07:59:21.820Z,101914.60
2024-02-14T08:01:49.233Z,101917.23
2024-02-14T08:04:17.256Z,101919.46
2024-02-14T08:06:47.025Z,101923.95
2024-02-14T08:09:14.049Z,101929.40
2024-02-14T08:11:41.461Z,101922.33
2024-02-14T08:14:08.365Z,101922.32
2024-02-14T08:16:35.224Z,101925.17
2024-02-14T08:19:04.191Z,101926.19
2024-02-14T08:21:32.739Z,101922.50
2024-02-14T08:24:01.352Z,101923.63
2024-02-14T08:26:29.545Z,101924.73
2024-02-14T08:28:56.690Z,101923.19
2024-02-14T08:31:23.955Z,101924.52
2024-02-14T08:33:51.471Z,101925.60
2024-02-14T08:36:20.906Z,101926.14
2024-02-14T08:38:48.428Z,101924.60
2024-02-14T08:41:15.544Z,101923.56
2024-02-14T08:43:45.930Z,101927.77
2024-02-14T08:46:14.610Z,101930.79
2024-02-14T08:48:48.113Z,101934.52
2024-02-14T08:51:16.157Z,101934.09
2024-02-14T08:53:46.602Z,101932.36
2024-02-14T08:56:15.132Z,101930.77
2024-02-14T08:58:42.541Z,101933.48
2024-02-14T09:01:14.927Z,101934.56
2024-02-14T09:03:50.538Z,101936.59
2024-02-14T09:06:20.041Z,101937.06
2024-02-14T09:08:48.292Z,101936.63
2024-02-14T09:11:15.560Z,101928.02
2024-02-14T09:13:42.724Z,101919.35
2024-02-14T09:16:11.112Z,101917.05
2024-02-14T09:18:38.776Z,101918.33
2024-02-14T09:21:07.059Z,101916.61
2024-02-14T09:23:35.015Z,101915.46
2024-02-14T09:26:03.260Z,101911.56
2024-02-14T09:28:30.695Z,101909.92
2024-02-14T09:30:57.871Z,101907.94
2024-02-14T09:33:24.946Z,101914.05
2024-02-14T09:35:54.089Z,101919.81
2024-02-14T09:38:21.340Z,101921.19
2024-02-14T09:40:48.473Z,101924.23
2024-02-14T09:43:24.357Z,101921.71
2024-02-14T09:45:53.504Z,101923.40
2024-02-14T09:48:22.268Z,101924.66
2024-02-14T09:50:50.316Z,101928.06
2024-02-14T09:53:18.316Z,101926.02
2024-02-14T09:55:47.443Z,101925.52
2024-02-14T09:58:16.411Z,101927.21
2024-02-14T10:00:51.712Z,101920.41
2024-02-14T10:03:19.607Z,101921.20
2024-02-14T10:05:46.538Z,101920.10
2024-02-14T10:08:13.627Z,101922.44
2024-02-14T10:10:40.623Z,101922.28
2024-02-14T10:13:08.351Z,101922.78
2024-02-14T10:15:36.764Z,101926.48
2024-02-14T10:18:04.699Z,101926.50
2024-02-14T10:20:33.638Z,101926.98
2024-02-14T10:23:07.261Z,101918.86
2024-02-14T10:25:36.203Z,101908.76
2024-02-14T10:28:09.887Z,101909.13
2024-02-14T10:30:39.533Z,101914.75
2024-02-14T10:33:17.086Z,101911.21
2024-02-14T10:35:51.933Z,101912.59
2024-02-14T10:38:21.518Z,101913.47
2024-02-14T10:40:49.993Z,101909.41
2024-02-14T10:43:17.070Z,101908.75
2024-02-14T10:45:44.252Z,101907.92
2024-02-14T10:48:13.502Z,101910.25
2024-02-14T10:50:42.782Z,101900.57
2024-02-14T10:53:15.635Z,101898.21
2024-02-14T10:55:48.819Z,101899.77
2024-02-14T10:58:17.852Z,101899.16
2024-02-14T11:00:47.510Z,101901.50
2024-02-14T11:03:16.639Z,101896.73
2024-02-14T11:05:47.800Z,101891.20
2024-02-14T11:08:16.489Z,101895.48
2024-02-14T11:10:43.777Z,101894.85
2024-02-14T11:13:16.887Z,101894.73
2024-02-14T11:15:47.970Z,101892.23
2024-02-14T11:18:14.883Z,101891.58
2024-02-14T11:20:43.664Z,101885.94
2024-02-14T11:23:12.812Z,101883.58
2024-02-14T11:25:39.906Z,101886.98
2024-02-14T11:28:18.554Z,101892.89
2024-02-14T11:30:45.448Z,101896.03
2024-02-14T11:33:16.038Z,101892.73
2024-02-14T11:35:43.792Z,101891.94
2024-02-14T11:38:11.219Z,101891.45
2024-02-14T11:40:42.307Z,101885.14
2024-02-14T11:43:14.055Z,101880.21
2024-02-14T11:45:43.296Z,101875.80
2024-02-14T11:48:14.648Z,101871.22
2024-02-14T11:50:44.316Z,101863.70
2024-02-14T11:53:18.134Z,101865.63
2024-02-14T11:55:44.903Z,101868.71
2024-02-14T11:58:13.874Z,101861.02
2024-02-14T12:00:42.328Z,101869.12
2024-02-14T12:03:14.376Z,101869.59
2024-02-14T12:05:42.848Z,101866.38
2024-02-14T12:08:11.100Z,101857.27
2024-02-14T12:10:41.129Z,101855.67
2024-02-14T12:13:13.406Z,101857.69
2024-02-14T12:15:41.408Z,101866.41
2024-02-14T12:18:15.217Z,101869.46
2024-02-14T12:20:45.316Z,101863.33
2024-02-14T12:23:19.513Z,101853.41
2024-02-14T12:25:47.887Z,101853.75
2024-02-14T12:28:18.572Z,101852.79
2024-02-14T12:30:59.700Z,101847.83
2024-02-14T12:33:28.037Z,101846.40
2024-02-14T12:35:56.479Z,101849.30
2024-02-14T12:38:24.617Z,101846.48
2024-02-14T12:40:54.653Z,101842.98
2024-02-14T12:43:21.747Z,101842.83
2024-02-14T12:45:48.947Z,101843.98
2024-02-14T12:48:24.028Z,101845.71
2024-02-14T12:50:52.796Z,101841.11
2024-02-14T12:53:20.965Z,101837.15
2024-02-14T12:55:48.347Z,101834.28
2024-02-14T12:58:16.202Z,101825.16
2024-02-14T13:00:44.584Z,101817.09
2024-02-14T13:03:15.071Z,101810.64
2024-02-14T13:05:43.425Z,101810.17
2024-02-14T13:08:12.682Z,101813.35
2024-02-14T13:10:39.838Z,101810.86
2024-02-14T13:13:06.765Z,101802.76
2024-02-14T13:15:33.729Z,101802.95
2024-02-14T13:18:01.806Z,101801.60
2024-02-14T13:20:29.302Z,101799.73
2024-02-14T13:22:56.670Z,101794.42
2024-02-14T13:25:23.421Z,101798.83
2024-02-14T13:27:50.389Z,101799.78
2024-02-14T13:30:17.283Z,101803.50
2024-02-14T13:32:44.247Z,101801.88
2024-02-14T13:35:12.714Z,101795.07
2024-02-14T13:37:39.616Z,101787.40
2024-02-14T13:40:11.410Z,101791.44
2024-02-14T13:42:39.119Z,101791.91
2024-02-14T13:45:13.241Z,101797.11
2024-02-14T13:47:40.494Z,101800.83
2024-02-14T13:50:10.128Z,101803.67
2024-02-14T13:52:37.821Z,101804.70
2024-02-14T13:55:06.631Z,101800.75
2024-02-14T13:57:42.848Z,101791.04
2024-02-14T14:00:10.994Z,101794.92
2024-02-14T14:02:44.511Z,101799.57
2024-02-14T14:05:14.841Z,101796.79
2024-02-14T14:07:53.286Z,101792.63
2024-02-14T14:10:26.943Z,101790.14
2024-02-14T14:12:53.852Z,101783.35
2024-02-14T14:15:20.862Z,101775.91
2024-02-14T14:17:48.122Z,101778.61
2024-02-14T14:20:15.479Z,101776.48
2024-02-14T14:22:42.582Z,101773.98
2024-02-14T14:25:09.988Z,101769.48
2024-02-14T14:27:37.115Z,101770.30
2024-02-14T14:30:05.588Z,101768.73
2024-02-14T14:32:32.643Z,101779.70
2024-02-14T14:34:59.548Z,101780.38
2024-02-14T14:37:26.286Z,101775.80
2024-02-14T14:39:53.124Z,101775.42
2024-02-14T14:42:20.158Z,101766.83
2024-02-14T14:44:46.908Z,101765.56
2024-02-14T14:47:14.471Z,101769.38
2024-02-14T14:49:43.441Z,101775.70
2024-02-14T14:52:10.184Z,101775.66
2024-02-14T14:54:38.093Z,101769.30
2024-02-14T14:57:08.475Z,101767.84
2024-02-14T14:59:36.590Z,101772.85
2024-02-14T15:02:03.703Z,101779.60
2024-02-14T15:04:30.699Z,101777.91
2024-02-14T15:06:57.655Z,101775.02
2024-02-14T15:09:24.657Z,101777.21
2024-02-14T15:11:51.820Z,101782.09
2024-02-14T15:14:19.252Z,101784.52
2024-02-14T15:16:46.199Z,101774.78
2024-02-14T15:19:13.204Z,101769.46
2024-02-14T15:21:40.086Z,101771.64
2024-02-14T15:24:08.100Z,101777.73
2024-02-14T15:26:50.932Z,101776.07
2024-02-14T15:29:38.434Z,101778.30
2024-02-14T15:32:24.846Z,101777.21
2024-02-14T15:34:52.390Z,101772.84
2024-02-14T15:37:19.286Z,101769.95
2024-02-14T15:39:46.199Z,101770.38
2024-02-14T15:42:13.466Z,101774.48
2024-02-14T15:44:40.967Z,101779.24
2024-02-14T15:47:09.098Z,101781.86
2024-02-14T15:49:36.874Z,101793.59
2024-02-14T15:52:06.110Z,101798.86
2024-02-14T15:54:33.018Z,101800.29
2024-02-14T15:57:01.394Z,101809.67
2024-02-14T15:59:28.959Z,101816.66
2024-02-14T16:01:56.992Z,101821.63
2024-02-14T16:04:24.710Z,101822.20
2024-02-14T16:06:51.895Z,101822.89
2024-02-14T16:09:18.784Z,101819.14
2024-02-14T16:11:45.820Z,101820.42
2024-02-14T16:14:12.812Z,101820.45
2024-02-14T16:16:39.582Z,101823.14
2024-02-14T16:19:07.301Z,101824.20
2024-02-14T16:21:34.347Z,101822.02
2024-02-14T16:24:01.191Z,101822.13
2024-02-14T16:26:31.178Z,101823.65
2024-02-14T16:28:58.664Z,101825.34
2024-02-14T16:31:25.820Z,101830.34
2024-02-14T16:33:52.950Z,101827.21
2024-02-14T16:36:19.898Z,101830.15
2024-02-14T16:38:46.798Z,101829.40
2024-02-14T16:41:13.762Z,101831.48
2024-02-14T16:43:40.427Z,101837.88
2024-02-14T16:46:07.486Z,101840.67
2024-02-14T16:48:34.517Z,101845.94
2024-02-14T16:51:01.643Z,101851.17
2024-02-14T16:53:28.501Z,101855.03
2024-02-14T16:55:55.981Z,101857.73
2024-02-14T16:58:23.002Z,101855.66
2024-02-14T17:00:50.521Z,101852.46
2024-02-14T17:03:17.819Z,101852.80
2024-02-14T17:05:47.468Z,101857.40
2024-02-14T17:08:14.518Z,101858.91
2024-02-14T17:10:41.418Z,101868.25
2024-02-14T17:13:09.035Z,101870.10
2024-02-14T17:15:36.608Z,101871.01
2024-02-14T17:18:06.052Z,101871.88
2024-02-14T17:20:33.039Z,101874.30
2024-02-14T17:23:00.013Z,101874.86
2024-02-14T17:25:26.776Z,101874.07
2024-02-14T17:27:53.609Z,101883.14
2024-02-14T17:30:21.817Z,101886.31
2024-02-14T17:32:50.009Z,101890.42
2024-02-14T17:35:17.887Z,101887.41
2024-02-14T17:37:44.861Z,101889.12
2024-02-14T17:40:12.207Z,101883.95
2024-02-14T17:42:39.856Z,101880.52
2024-02-14T17:45:07.634Z,101888.27
2024-02-14T17:47:35.312Z,101883.14
2024-02-14T17:50:04.216Z,101889.06
2024-02-14T17:52:31.239Z,101889.24
2024-02-14T17:54:58.915Z,101894.30
2024-02-14T17:57:26.323Z,101896.15
2024-02-14T17:59:53.877Z,101896.95
2024-02-14T18:02:21.486Z,101894.52
2024-02-14T18:04:48.381Z,101903.54
2024-02-14T18:07:15.394Z,101903.98
2024-02-14T18:09:42.633Z,101905.03
2024-02-14T18:12:09.902Z,101904.31
2024-02-14T18:14:36.931Z,101900.38
2024-02-14T18:17:04.000Z,101894.40
2024-02-14T18:19:31.159Z,101890.84
2024-02-14T18:21:58.236Z,101892.05
2024-02-14T18:24:25.147Z,101895.48
2024-02-14T18:26:51.908Z,101896.73
2024-02-14T18:29:19.014Z,101897.45
2024-02-14T18:31:46.172Z,101901.95
2024-02-14T18:34:13.277Z,101904.30
2024-02-14T18:36:40.376Z,101908.77
2024-02-14T18:39:07.578Z,101909.84
2024-02-14T18:41:36.115Z,101914.83
2024-02-14T18:44:05.375Z,101918.49
2024-02-14T18:46:33.930Z,101923.66
2024-02-14T18:49:00.941Z,101920.59
2024-02-14T18:51:28.018Z,101923.33
2024-02-14T18:53:54.944Z,101927.41
2024-02-14T18:56:22.151Z,101931.20
2024-02-14T18:58:50.882Z,101930.58
2024-02-14T19:01:28.854Z,101926.29
2024-02-14T19:03:56.706Z,101926.59
2024-02-14T19:06:32.041Z,101929.63
2024-02-14T19:08:58.918Z,101927.63
2024-02-14T19:11:26.210Z,101922.45
2024-02-14T19:13:55.200Z,101920.45
2024-02-14T19:16:28.336Z,101921.99
2024-02-14T19:19:00.196Z,101920.92
2024-02-14T19:21:27.183Z,101924.18
2024-02-14T19:23:54.039Z,101922.73
2024-02-14T19:26:22.504Z,101922.60
2024-02-14T19:28:50.064Z,101925.15
2024-02-14T19:31:16.994Z,101928.05
2024-02-14T19:33:44.414Z,101923.46
2024-02-14T19:36:11.383Z,101927.67
2024-02-14T19:38:38.745Z,101929.31
2024-02-14T19:41:05.903Z,101934.48
2024-02-14T19:43:39.185Z,101940.91
2024-02-14T19:46:07.388Z,101942.95
2024-02-14T19:48:36.459Z,101940.21
2024-02-14T19:51:04.721Z,101936.75
2024-02-14T19:53:33.391Z,101943.64
2024-02-14T19:56:00.471Z,101935.58
2024-02-14T19:58:28.150Z,101931.14
2024-02-14T20:00:55.363Z,101926.09
2024-02-14T20:03:22.570Z,101928.84
2024-02-14T20:05:49.744Z,101933.66
2024-02-14T20:08:16.844Z,101933.77
2024-02-14T20:10:44.001Z,101938.91
2024-02-14T20:13:11.140Z,101936.36
2024-02-14T20:15:38.464Z,101936.25
2024-02-14T20:18:05.967Z,101939.77
2024-02-14T20:20:33.030Z,101942.92
2024-02-14T20:23:00.059Z,101944.61
2024-02-14T20:25:27.204Z,101942.36
2024-02-14T20:27:55.321Z,101939.96
2024-02-14T20:30:22.515Z,101939.41
2024-02-14T20:32:49.671Z,101940.66
2024-02-14T20:35:16.991Z,101940.56
2024-02-14T20:37:44.717Z,101946.40
2024-02-14T20:40:14.720Z,101949.39
2024-02-14T20:42:46.181Z,101950.73
2024-02-14T20:45:14.146Z,101945.69
2024-02-14T20:47:44.161Z,101944.91
2024-02-14T20:50:11.046Z,101942.95
2024-02-14T20:52:38.844Z,101946.42
2024-02-14T20:55:06.316Z,101949.20
2024-02-14T20:57:34.501Z,101947.54
2024-02-14T21:00:02.134Z,101949.59
2024-02-14T21:02:29.152Z,101955.92
2024-02-14T21:04:56.374Z,101954.14
2024-02-14T21:07:23.662Z,101957.98
2024-02-14T21:09:50.416Z,101964.09
2024-02-14T21:12:19.141Z,101960.62
2024-02-14T21:14:45.897Z,101959.02
2024-02-14T21:17:13.108Z,101962.45
2024-02-14T21:19:39.964Z,101961.10
2024-02-14T21:22:07.267Z,101958.47
2024-02-14T21:24:33.965Z,101962.27
2024-02-14T21:27:00.706Z,101959.86
2024-02-14T21:29:27.883Z,101957.35
2024-02-14T21:31:55.013Z,101957.35
2024-02-14T21:34:22.153Z,101963.21
2024-02-14T21:36:49.194Z,101963.02
2024-02-14T21:39:18.920Z,101955.94
2024-02-14T21:41:47.432Z,101958.40
2024-02-14T21:44:14.698Z,101960.46
2024-02-14T21:46:43.526Z,101963.98
2024-02-14T21:49:15.782Z,101962.70
2024-02-14T21:51:42.859Z,101961.40
2024-02-14T21:54:09.705Z,101958.56
2024-02-14T21:56:36.516Z,101961.27
2024-02-14T21:59:03.769Z,101964.55
2024-02-14T22:01:30.630Z,101964.97
2024-02-14T22:03:57.371Z,101960.79
2024-02-14T22:06:24.292Z,101957.41
2024-02-14T22:26:02.350Z,101955.88
2024-02-14T22:28:35.847Z,101955.55
2024-02-14T22:31:03.761Z,101954.60
2024-02-14T22:33:31.101Z,101945.85
2024-02-14T22:35:58.264Z,101946.36
2024-02-14T22:38:25.401Z,101939.88
2024-02-14T22:40:52.372Z,101934.59
2024-02-14T22:43:19.277Z,101931.69
2024-02-14T22:45:46.295Z,101929.56
2024-02-14T22:48:14.209Z,101927.02
2024-02-14T22:50:41.125Z,101922.81
2024-02-14T22:53:08.979Z,101927.59
2024-02-14T22:55:36.135Z,101926.52
2024-02-14T22:58:04.937Z,101927.56
2024-02-14T23:00:34.947Z,101929.40
2024-02-14T23:03:07.409Z,101929.39
2024-02-14T23:05:35.996Z,101929.78
2024-02-14T23:08:03.520Z,101928.89
2024-02-14T23:10:30.745Z,101929.98
2024-02-14T23:12:57.431Z,101928.31
2024-02-14T23:15:24.439Z,101916.73
2024-02-14T23:17:52.143Z,101911.66
2024-02-14T23:20:19.575Z,101907.86
2024-02-14T23:22:46.430Z,101906.02
2024-02-14T23:25:13.359Z,101912.91
2024-02-14T23:27:44.052Z,101911.94
2024-02-14T23:30:11.607Z,101912.46
2024-02-14T23:32:40.519Z,101915.80
2024-02-14T23:35:11.489Z,101912.29
2024-02-14T23:37:41.886Z,101906.02
2024-02-14T23:40:12.060Z,101901.89
2024-02-14T23:42:46.296Z,101906.19
2024-02-14T23:45:13.098Z,101904.70
2024-02-14T23:47:40.714Z,101901.48
2024-02-14T23:50:12.005Z,101895.41
2024-02-14T23:52:40.054Z,101889.52
2024-02-14T23:55:07.091Z,101887.88
2024-02-14T23:57:34.699Z,101885.40
